Sligo Airport - TAF
(Terminal Area Forecast)

Issued at 02:06 UTC on Thu. 4-Mar-21

--- METARS(SA) ---

METAR EISG(SLIGO) 040200Z AUTO 00000KT 9999 OVC031 05/02 Q1028 =

--- TAFS() ---

TAF EISG(SLIGO) 040200Z 0403/0412 VRB03KT 9999 BKN030 TEMPO

0403/0412 BKN012 PROB30 TEMPO 0403/0406 4000 BR =

--- SIGMETS(WS) ---

IE - No VALID SIGMETS/Warnings FOR THIS AREA

--- SIGMETS Volcanic(WV) ---

IE - No VALID SIGMETS/Warnings FOR THIS AREA

--- SIGMETS(WS) ---

UK - No VALID SIGMETS/Warnings FOR THIS AREA

Sligo Airport - METARs

Latest METARs for Sligo and Donegal Airports - updated every 30 mins